Time;durP1;ratioP1;P1;durP2;ratioP2;P2;SDS_P1;SDS_P2;PMS_P1;PMS_P2;Temp;Humidity;BMP_temperature;BMP_pressure;BME280_temperature;BME280_humidity;BME280_pressure;Samples;Min_cycle;Max_cycle;Signal;HPM_P1;HPM_P2
2023/10/10 00:00:57;;;;;;;;;;;15.40;55.80;;;14.33;57.77;101497.28;12266116;19;19915;-83
2023/10/10 00:05:11;;;;;;;;;;;15.40;55.60;;;14.23;57.70;101489.09;12268797;19;19919;-83
2023/10/10 00:09:13;;;;;;;;;;;15.40;55.50;;;14.35;57.74;101498.03;12264249;19;19924;-82
2023/10/10 00:13:16;;;;;;;;;;;15.40;55.50;;;14.34;57.80;101496.38;12267554;19;20237;-83
2023/10/10 00:17:20;;;;;;;;;;;15.30;55.40;;;14.32;57.76;101490.34;12266695;19;19935;-84
2023/10/10 00:21:23;;;;;;;;;;;15.40;55.40;;;14.30;57.77;101495.66;12266539;19;20383;-84
2023/10/10 00:25:30;;;;;;;;;;;15.40;55.50;;;14.34;57.71;101491.09;12267295;19;19947;-84
2023/10/10 00:29:33;;;;;;;;;;;15.40;55.40;;;14.35;57.76;101490.16;12268155;19;19918;-84
2023/10/10 00:33:37;;;;;;;;;;;15.40;55.40;;;14.31;57.86;101486.00;12264259;19;20321;-84
2023/10/10 00:37:40;;;;;;;;;;;15.40;55.40;;;14.37;57.98;101490.91;12263917;19;19930;-83
2023/10/10 00:41:52;;;;;;;;;;;15.40;55.40;;;14.35;57.81;101487.53;12265815;19;19915;-83
2023/10/10 00:45:54;;;;;;;;;;;15.50;55.80;;;14.39;57.81;101494.28;12262194;19;19923;-83
2023/10/10 00:49:56;;;;;;;;;;;15.40;55.60;;;14.34;58.00;101475.34;12260604;19;19993;-83
2023/10/10 00:58:36;;;;;;;;;;;15.40;55.50;;;14.35;57.86;101471.75;12250076;19;20524;-83
2023/10/10 01:02:38;;;;;;;;;;;15.40;55.50;;;14.37;57.91;101470.75;12258174;19;19939;-83
2023/10/10 01:06:40;;;;;;;;;;;15.40;55.40;;;14.36;57.90;101463.78;12261754;19;20270;-82
2023/10/10 01:10:47;;;;;;;;;;;15.40;55.40;;;14.38;57.77;101476.84;12258325;19;19949;-83
2023/10/10 01:14:57;;;;;;;;;;;15.40;55.40;;;14.33;57.93;101473.63;12263657;19;19922;-83
2023/10/10 01:18:59;;;;;;;;;;;15.50;55.50;;;14.37;57.95;101473.38;12259628;19;19911;-83
2023/10/10 01:23:02;;;;;;;;;;;15.40;55.40;;;14.39;58.03;101475.88;12262565;19;20361;-83
2023/10/10 01:27:15;;;;;;;;;;;15.40;55.50;;;14.39;58.14;101468.88;12260371;19;19919;-84
2023/10/10 01:31:18;;;;;;;;;;;15.50;55.50;;;14.38;57.91;101472.41;12263601;19;19918;-83
2023/10/10 01:35:23;;;;;;;;;;;15.50;55.50;;;14.39;58.11;101468.00;12263337;19;19930;-84
2023/10/10 01:40:06;;;;;;;;;;;15.50;55.60;;;14.49;58.01;101465.69;12259770;19;19982;-83
2023/10/10 01:44:11;;;;;;;;;;;15.50;55.50;;;14.47;57.93;101449.16;12259279;19;19919;-83
2023/10/10 01:48:12;;;;;;;;;;;15.50;55.50;;;14.50;58.09;101449.84;12252988;19;19930;-83
2023/10/10 01:52:17;;;;;;;;;;;15.60;55.60;;;14.46;58.13;101440.44;12260037;19;19918;-83
2023/10/10 01:56:18;;;;;;;;;;;15.60;55.50;;;14.48;58.24;101441.19;12263219;19;19947;-84
2023/10/10 02:00:26;;;;;;;;;;;15.60;55.60;;;14.21;58.17;101395.56;12268768;19;19927;-84
2023/10/10 02:04:34;;;;;;;;;;;15.60;55.90;;;14.45;58.13;101430.88;12265967;19;19928;-83
2023/10/10 02:08:38;;;;;;;;;;;15.60;55.70;;;14.48;58.08;101438.56;12266834;19;19922;-84
2023/10/10 02:12:44;;;;;;;;;;;15.60;55.70;;;14.42;58.06;101432.81;12264613;19;19923;-83
2023/10/10 02:16:48;;;;;;;;;;;15.60;55.60;;;14.46;58.07;101443.06;12265130;19;19953;-83
2023/10/10 02:20:50;;;;;;;;;;;15.60;55.70;;;14.43;58.13;101431.91;12264021;19;19919;-84
2023/10/10 02:33:37;;;;;;;;;;;15.50;55.70;;;14.42;58.20;101424.94;12262033;19;19959;-84
2023/10/10 02:37:45;;;;;;;;;;;15.60;55.70;;;14.48;58.20;101437.72;12260798;19;19915;-83
2023/10/10 02:41:50;;;;;;;;;;;15.60;55.60;;;14.28;58.20;101410.00;12259933;19;19919;-84
2023/10/10 02:45:52;;;;;;;;;;;15.50;55.90;;;14.48;58.28;101445.59;12253122;19;20000;-83
2023/10/10 02:49:55;;;;;;;;;;;15.60;55.80;;;14.46;58.27;101437.81;12255275;19;19919;-83
2023/10/10 02:53:57;;;;;;;;;;;15.60;55.80;;;14.48;58.23;101438.56;12261646;19;19927;-84
2023/10/10 02:57:59;;;;;;;;;;;15.60;55.80;;;14.52;58.31;101453.22;12268226;19;19919;-84
2023/10/10 03:02:08;;;;;;;;;;;15.60;55.80;;;14.53;58.20;101433.91;12267280;19;19910;-84
2023/10/10 03:06:11;;;;;;;;;;;15.60;55.80;;;14.58;58.24;101436.25;12263674;19;19921;-83
2023/10/10 03:10:37;;;;;;;;;;;15.60;55.80;;;14.45;58.34;101409.00;12265156;19;19948;-83
2023/10/10 03:14:43;;;;;;;;;;;15.70;55.80;;;14.55;58.27;101415.41;12272522;19;19959;-84
2023/10/10 03:35:51;;;;;;;;;;;15.60;55.80;;;14.57;58.26;101418.78;12279018;19;19923;-84
2023/10/10 03:39:54;;;;;;;;;;;15.60;55.80;;;14.62;58.47;101431.66;12277025;19;19919;-85
2023/10/10 05:24:14;;;;;;;;;;;15.80;56.10;;;14.75;58.67;101446.59;12285579;19;19927;-83
2023/10/10 05:28:15;;;;;;;;;;;15.80;56.00;;;14.69;58.60;101438.22;12283295;19;19923;-86
2023/10/10 05:32:17;;;;;;;;;;;15.80;56.10;;;14.70;58.53;101445.19;12287106;19;19919;-84
2023/10/10 05:36:19;;;;;;;;;;;15.80;56.10;;;14.71;58.65;101438.97;12286744;19;19915;-85
2023/10/10 05:40:21;;;;;;;;;;;15.90;56.10;;;14.79;58.68;101460.38;12282980;19;19999;-85
2023/10/10 05:44:23;;;;;;;;;;;15.90;56.10;;;14.84;58.64;101471.47;12285396;19;19919;-85
2023/10/10 05:48:26;;;;;;;;;;;15.90;56.10;;;14.80;58.54;101465.56;12283668;19;19930;-85
2023/10/10 05:52:28;;;;;;;;;;;15.90;56.10;;;14.82;58.50;101462.81;12282196;19;19935;-85
2023/10/10 05:56:30;;;;;;;;;;;15.90;56.20;;;14.74;58.55;101446.66;12286570;19;19915;-84
2023/10/10 06:00:36;;;;;;;;;;;15.90;56.10;;;14.75;58.58;101448.38;12286383;19;19919;-85
2023/10/10 06:04:40;;;;;;;;;;;15.90;56.10;;;14.82;58.70;101466.31;12288297;19;19932;-85
2023/10/10 06:08:42;;;;;;;;;;;15.90;56.10;;;14.78;58.64;101459.53;12281995;19;19911;-86
2023/10/10 06:12:46;;;;;;;;;;;15.90;56.30;;;14.76;58.58;101468.47;12271852;19;19960;-84
2023/10/10 06:16:48;;;;;;;;;;;15.90;56.20;;;14.82;58.64;101470.72;12271810;19;19926;-84
2023/10/10 06:20:50;;;;;;;;;;;15.90;56.20;;;14.85;58.89;101481.03;12271183;19;19907;-85
2023/10/10 06:24:57;;;;;;;;;;;15.90;56.30;;;14.89;58.78;101486.97;12276472;19;19926;-85
2023/10/10 06:29:01;;;;;;;;;;;15.90;56.30;;;14.91;58.65;101496.47;12278276;19;19955;-84
2023/10/10 06:33:14;;;;;;;;;;;16.00;56.70;;;14.86;58.65;101482.75;12280475;19;19932;-84
2023/10/10 06:37:16;;;;;;;;;;;16.00;56.40;;;14.88;58.75;101491.41;12276187;19;20256;-84
2023/10/10 06:41:22;;;;;;;;;;;16.00;56.30;;;14.94;58.68;101500.69;12272689;19;19918;-84
2023/10/10 06:45:25;;;;;;;;;;;16.00;56.40;;;14.92;58.82;101495.50;12272945;19;19950;-85
2023/10/10 06:49:43;;;;;;;;;;;16.00;56.40;;;14.95;58.84;101500.59;12277542;19;19918;-84
2023/10/10 06:53:45;;;;;;;;;;;16.10;56.90;;;15.01;58.82;101502.84;12277210;19;19953;-83
2023/10/10 06:57:57;;;;;;;;;;;16.10;56.60;;;15.04;58.71;101510.56;12273897;19;19917;-84
2023/10/10 07:02:39;;;;;;;;;;;16.10;56.60;;;15.09;58.87;101514.69;12273131;19;20372;-86
2023/10/10 07:06:28;;;;;;;;;;;16.10;56.70;;;15.13;58.82;101521.44;12278733;19;20245;-84
2023/10/10 07:10:33;;;;;;;;;;;16.10;56.70;;;15.04;58.93;101505.31;12274458;19;20360;-85
2023/10/10 07:14:40;;;;;;;;;;;16.20;56.70;;;14.93;58.75;101480.56;12266905;19;19918;-84
2023/10/10 07:18:42;;;;;;;;;;;16.20;56.80;;;15.23;58.92;101527.84;12266831;19;19947;-84
2023/10/10 07:22:44;;;;;;;;;;;16.30;56.80;;;15.18;58.91;101503.59;12267876;19;19922;-84
2023/10/10 07:26:58;;;;;;;;;;;16.40;56.90;;;15.15;59.02;101495.88;12271550;19;19914;-84
2023/10/10 07:31:00;;;;;;;;;;;16.40;56.90;;;15.34;59.20;101501.69;12263186;19;19918;-84
2023/10/10 07:35:02;;;;;;;;;;;16.50;56.90;;;15.41;59.09;101526.69;12266179;19;19919;-84
2023/10/10 07:39:32;;;;;;;;;;;16.50;57.10;;;15.45;59.17;101524.72;12268236;19;19915;-84
2023/10/10 07:43:27;;;;;;;;;;;16.60;57.10;;;15.43;59.08;101510.81;12266094;19;19923;-85
2023/10/10 07:47:32;;;;;;;;;;;16.60;57.10;;;15.53;59.21;101519.81;12278245;19;20375;-85
2023/10/10 07:51:34;;;;;;;;;;;16.70;57.20;;;15.55;59.10;101517.06;12277371;19;19978;-84
2023/10/10 07:59:57;;;;;;;;;;;16.80;57.30;;;15.78;59.28;101534.06;12271790;19;19947;-84
2023/10/10 08:04:04;;;;;;;;;;;16.90;57.40;;;15.75;59.32;101518.47;12277228;19;19918;-83
2023/10/10 08:08:13;;;;;;;;;;;16.90;57.50;;;15.81;59.20;101510.19;12275889;19;19930;-83
2023/10/10 08:12:15;;;;;;;;;;;17.00;57.50;;;15.96;59.23;101532.91;12279680;19;19943;-84
2023/10/10 08:16:21;;;;;;;;;;;17.10;57.40;;;16.03;59.33;101530.69;12276652;19;19919;-83
2023/10/10 08:24:35;;;;;;;;;;;17.20;57.60;;;16.10;59.35;101532.84;12277695;19;19922;-83
2023/10/10 08:28:37;;;;;;;;;;;17.30;57.60;;;16.21;59.48;101532.13;12275722;19;19922;-84
2023/10/10 08:32:39;;;;;;;;;;;17.40;57.70;;;16.29;59.49;101529.81;12276556;19;19929;-83
2023/10/10 08:36:43;;;;;;;;;;;17.50;57.70;;;16.37;59.58;101532.78;12276433;19;19918;-85
2023/10/10 08:40:48;;;;;;;;;;;17.50;57.80;;;16.23;59.51;101498.63;12271454;19;20325;-83
2023/10/10 08:44:55;;;;;;;;;;;17.60;57.90;;;16.40;59.56;101509.81;12275640;19;19922;-85
2023/10/10 08:49:04;;;;;;;;;;;17.70;58.00;;;16.66;59.49;101526.50;12275537;19;19915;-84
2023/10/10 08:53:12;;;;;;;;;;;17.80;58.10;;;16.68;59.72;101509.63;12275827;19;19939;-83
2023/10/10 08:57:24;;;;;;;;;;;17.90;58.10;;;16.84;59.53;101524.44;12281453;19;19930;-84
2023/10/10 09:01:33;;;;;;;;;;;18.00;58.30;;;16.96;59.59;101524.44;12264853;19;19918;-83
2023/10/10 09:05:36;;;;;;;;;;;18.10;58.10;;;16.94;59.53;101521.06;12251555;19;19939;-83
2023/10/10 09:09:40;;;;;;;;;;;18.10;58.20;;;16.86;59.66;101497.00;12250734;19;19966;-83
2023/10/10 09:13:51;;;;;;;;;;;18.30;58.20;;;17.12;59.54;101529.50;12253327;19;19918;-82
2023/10/10 09:18:12;;;;;;;;;;;18.40;58.30;;;17.21;59.62;101525.38;12250629;19;19911;-83
2023/10/10 09:22:44;;;;;;;;;;;18.40;58.20;;;17.34;59.70;101541.19;12246537;19;19939;-83
2023/10/10 09:26:50;;;;;;;;;;;18.50;58.10;;;17.39;59.76;101532.00;12248639;19;19915;-83
2023/10/10 09:31:03;;;;;;;;;;;18.60;58.20;;;17.47;59.76;101529.66;12244829;19;19979;-84
2023/10/10 09:35:08;;;;;;;;;;;18.70;58.20;;;17.55;59.98;101536.16;12247276;19;19918;-83
2023/10/10 09:39:26;;;;;;;;;;;18.80;58.20;;;17.64;59.90;101531.06;12247791;19;20375;-82
2023/10/10 09:43:35;;;;;;;;;;;18.80;58.20;;;17.57;59.80;101503.41;12249722;19;19933;-84
2023/10/10 09:47:42;;;;;;;;;;;18.90;58.20;;;17.73;59.80;101513.69;12285100;19;19942;-85
2023/10/10 09:56:08;;;;;;;;;;;19.10;58.20;;;18.00;59.93;101533.81;12285819;19;19928;-85
2023/10/10 10:00:13;;;;;;;;;;;19.20;58.20;;;18.05;59.97;101535.16;12282825;19;19926;-84
2023/10/10 10:04:24;;;;;;;;;;;19.20;58.00;;;18.09;59.55;101535.75;12284523;19;19936;-84
2023/10/10 10:09:19;;;;;;;;;;;19.30;58.00;;;18.17;59.67;101553.72;12280278;19;19944;-86
2023/10/10 10:13:26;;;;;;;;;;;19.30;57.80;;;18.19;59.76;101546.50;12273333;19;19931;-85
2023/10/10 10:17:47;;;;;;;;;;;19.40;57.60;;;18.23;59.95;101558.56;12274185;19;20256;-86
2023/10/10 10:21:53;;;;;;;;;;;19.40;57.60;;;18.12;59.70;101541.69;12273571;19;19918;-86
2023/10/10 10:26:04;;;;;;;;;;;19.40;57.50;;;18.30;59.62;101570.34;12274750;19;20383;-85
2023/10/10 10:34:35;;;;;;;;;;;19.50;57.70;;;18.38;59.84;101564.50;12282199;19;19925;-85
2023/10/10 10:38:45;;;;;;;;;;;19.50;57.70;;;18.44;59.60;101559.56;12279555;19;19958;-85
2023/10/10 10:42:51;;;;;;;;;;;19.60;57.60;;;18.46;59.75;101560.31;12272886;19;19938;-84
2023/10/10 10:46:56;;;;;;;;;;;19.60;57.60;;;18.47;59.62;101554.09;12276383;19;19947;-85
2023/10/10 10:51:24;;;;;;;;;;;19.70;57.60;;;18.55;59.87;101562.28;12270104;19;19926;-85
2023/10/10 10:55:29;;;;;;;;;;;19.70;57.50;;;18.57;59.54;101557.69;12281020;19;19919;-84
2023/10/10 10:59:38;;;;;;;;;;;19.70;57.50;;;18.58;59.80;101554.09;12277135;19;20241;-86
2023/10/10 11:03:43;;;;;;;;;;;19.80;57.80;;;18.60;59.79;101556.63;12268289;19;19923;-85
2023/10/10 11:07:47;;;;;;;;;;;19.80;57.50;;;18.60;59.59;101545.19;12269667;19;19918;-85
2023/10/10 11:11:48;;;;;;;;;;;19.80;57.50;;;18.56;59.75;101523.44;12264328;19;19983;-85
2023/10/10 11:15:53;;;;;;;;;;;19.80;57.50;;;18.68;59.77;101540.16;12268039;19;19943;-84
2023/10/10 11:19:55;;;;;;;;;;;19.90;57.60;;;18.79;59.70;101549.03;12270580;19;19915;-83
2023/10/10 11:24:00;;;;;;;;;;;19.90;57.50;;;18.78;59.82;101539.38;12273895;19;20270;-84
2023/10/10 11:28:04;;;;;;;;;;;19.90;57.50;;;18.79;59.49;101534.91;12262205;19;19946;-84
2023/10/10 11:32:08;;;;;;;;;;;20.00;57.40;;;18.81;59.59;101532.16;12265592;19;20342;-83
2023/10/10 11:36:37;;;;;;;;;;;20.00;57.30;;;18.82;59.44;101533.84;12276553;19;19915;-84
2023/10/10 11:40:39;;;;;;;;;;;20.00;57.30;;;18.89;59.39;101538.56;12265980;19;19952;-86
2023/10/10 11:44:41;;;;;;;;;;;20.00;57.30;;;18.90;59.74;101534.09;12284210;19;20257;-83
2023/10/10 11:48:43;;;;;;;;;;;20.00;57.30;;;18.95;59.61;101537.22;12273298;19;19915;-84
2023/10/10 11:52:56;;;;;;;;;;;20.00;57.30;;;18.99;59.65;101536.03;12282800;19;20331;-84
2023/10/10 11:56:59;;;;;;;;;;;20.00;57.20;;;19.00;59.76;101527.13;12276497;19;19919;-85
2023/10/10 12:01:09;;;;;;;;;;;20.00;57.30;;;19.02;59.66;101526.06;12252949;19;19918;-84
2023/10/10 12:09:30;;;;;;;;;;;20.10;57.70;;;19.08;59.62;101516.78;12268395;19;19918;-85
2023/10/10 12:17:38;;;;;;;;;;;20.20;57.40;;;19.13;59.54;101503.19;12266370;19;19914;-85
2023/10/10 12:21:40;;;;;;;;;;;20.20;57.50;;;19.20;59.80;101507.06;12270516;19;19943;-84
2023/10/10 12:25:42;;;;;;;;;;;20.20;57.50;;;19.29;59.83;101510.75;12268846;19;19924;-84
2023/10/10 12:29:47;;;;;;;;;;;20.30;57.60;;;19.35;59.38;101508.47;12262148;19;19926;-84
2023/10/10 12:33:49;;;;;;;;;;;20.40;57.60;;;19.36;59.38;101491.63;12267339;19;19919;-84
2023/10/10 12:38:01;;;;;;;;;;;20.50;57.90;;;19.47;59.58;101490.75;12269486;19;20319;-84
2023/10/10 12:42:02;;;;;;;;;;;20.50;57.40;;;19.51;59.60;101494.00;12266095;19;19998;-85
2023/10/10 12:46:06;;;;;;;;;;;20.60;57.30;;;19.56;59.27;101497.13;12269096;19;19948;-84
2023/10/10 12:50:13;;;;;;;;;;;20.60;57.30;;;19.57;59.49;101496.13;12269998;19;19923;-84
2023/10/10 12:54:17;;;;;;;;;;;20.60;57.30;;;19.60;59.51;101485.28;12269075;19;19919;-84
2023/10/10 12:58:23;;;;;;;;;;;20.60;57.30;;;19.61;59.55;101485.16;12267044;19;19922;-85
2023/10/10 13:02:26;;;;;;;;;;;20.70;57.30;;;19.66;59.38;101488.31;12269235;19;20254;-85
2023/10/10 13:06:28;;;;;;;;;;;20.70;57.20;;;19.70;59.42;101491.56;12272227;19;19903;-84
2023/10/10 13:10:32;;;;;;;;;;;20.80;57.20;;;19.64;59.75;101469.03;12270232;19;19927;-85
2023/10/10 13:14:33;;;;;;;;;;;20.80;57.20;;;19.72;59.45;101480.84;12269941;19;19929;-85
2023/10/10 13:18:35;;;;;;;;;;;20.80;57.10;;;19.68;59.29;101459.03;12274273;19;19919;-84
2023/10/10 13:22:37;;;;;;;;;;;20.80;57.20;;;19.77;59.60;101478.66;12270785;19;19930;-85
2023/10/10 13:26:45;;;;;;;;;;;20.80;57.10;;;19.77;59.63;101471.53;12271874;19;19923;-86
2023/10/10 13:30:47;;;;;;;;;;;20.80;57.10;;;19.80;59.57;101467.81;12271111;19;19952;-84
2023/10/10 13:34:49;;;;;;;;;;;20.80;57.10;;;19.80;59.26;101468.63;12274790;19;19918;-84
2023/10/10 13:38:57;;;;;;;;;;;20.90;57.10;;;19.81;59.33;101472.97;12270042;19;19922;-84
2023/10/10 13:42:59;;;;;;;;;;;20.90;57.10;;;19.86;59.31;101476.06;12272489;19;19943;-84
2023/10/10 13:47:00;;;;;;;;;;;20.90;57.10;;;19.80;59.35;101457.19;12271373;19;19947;-84
2023/10/10 13:51:04;;;;;;;;;;;20.90;57.00;;;19.83;59.41;101462.25;12268951;19;19926;-83
2023/10/10 13:55:06;;;;;;;;;;;20.90;56.90;;;19.86;59.08;101465.47;12271845;19;19919;-85
2023/10/10 13:59:09;;;;;;;;;;;20.90;56.90;;;19.89;59.53;101467.88;12272597;19;19923;-84
2023/10/10 14:03:14;;;;;;;;;;;20.90;57.00;;;19.87;59.09;101461.88;12275684;19;19951;-85
2023/10/10 14:07:15;;;;;;;;;;;20.90;57.10;;;19.84;59.07;101454.16;12274059;19;19963;-84
2023/10/10 14:11:21;;;;;;;;;;;20.90;57.10;;;19.82;59.41;101450.81;12269667;19;19918;-84
2023/10/10 14:15:23;;;;;;;;;;;20.90;57.00;;;19.99;58.90;101469.78;12274721;19;19919;-85
2023/10/10 14:19:25;;;;;;;;;;;21.00;57.10;;;19.97;59.16;101469.03;12275044;19;19975;-85
2023/10/10 14:23:29;;;;;;;;;;;21.00;57.10;;;19.94;59.14;101462.19;12271836;19;19911;-84
2023/10/10 14:27:31;;;;;;;;;;;21.00;57.00;;;20.03;58.98;101468.53;12275437;19;19927;-83
2023/10/10 14:31:34;;;;;;;;;;;21.00;57.00;;;20.05;59.35;101475.38;12272564;19;19919;-86
2023/10/10 14:35:36;;;;;;;;;;;21.10;57.10;;;19.91;59.21;101451.84;12276996;19;19974;-86
2023/10/10 14:39:44;;;;;;;;;;;21.10;57.10;;;20.03;59.37;101453.47;12273443;19;19914;-85
2023/10/10 14:43:50;;;;;;;;;;;21.00;57.10;;;20.04;59.14;101462.28;12274657;19;19958;-85
2023/10/10 14:47:52;;;;;;;;;;;21.10;57.10;;;19.97;59.09;101442.53;12274566;19;19953;-84
2023/10/10 14:51:53;;;;;;;;;;;21.00;57.00;;;20.05;59.08;101450.69;12273915;19;19915;-85
2023/10/10 14:55:54;;;;;;;;;;;21.00;57.10;;;20.09;59.32;101457.41;12272528;19;19953;-85
2023/10/10 14:59:56;;;;;;;;;;;21.00;57.10;;;20.08;59.08;101447.78;12273895;19;19992;-86
2023/10/10 15:03:57;;;;;;;;;;;21.10;57.10;;;20.10;59.02;101448.50;12274177;19;19943;-86
2023/10/10 15:07:59;;;;;;;;;;;21.10;57.10;;;20.13;59.11;101444.75;12275806;19;19927;-84
2023/10/10 15:12:01;;;;;;;;;;;21.10;57.10;;;20.14;59.31;101449.91;12274453;19;19931;-84
2023/10/10 15:16:05;;;;;;;;;;;21.10;57.10;;;20.10;58.85;101444.03;12275142;19;19919;-86
2023/10/10 15:20:11;;;;;;;;;;;21.10;57.10;;;19.95;58.97;101410.84;12270128;19;19915;-86
2023/10/10 15:24:14;;;;;;;;;;;21.10;57.10;;;20.11;59.09;101445.69;12274341;19;19923;-85
2023/10/10 15:28:16;;;;;;;;;;;21.10;57.10;;;20.13;59.12;101442.94;12274794;19;19946;-86
2023/10/10 15:32:18;;;;;;;;;;;21.10;57.10;;;20.10;59.02;101444.03;12268621;19;19914;-83
2023/10/10 15:36:20;;;;;;;;;;;21.10;57.00;;;20.05;59.25;101435.63;12268075;19;19931;-85
2023/10/10 15:40:22;;;;;;;;;;;21.10;57.00;;;20.11;59.06;101445.69;12255916;19;19974;-86
2023/10/10 15:44:24;;;;;;;;;;;21.00;57.00;;;20.05;59.18;101430.31;12273794;19;19927;-84
2023/10/10 15:48:27;;;;;;;;;;;21.10;57.00;;;20.06;58.93;101420.53;12273093;19;19996;-83
2023/10/10 15:52:33;;;;;;;;;;;21.00;57.00;;;20.04;59.26;101412.72;12271446;19;19965;-86
2023/10/10 15:56:35;;;;;;;;;;;21.00;57.00;;;20.07;59.05;101411.63;12271406;19;19964;-84
2023/10/10 16:00:38;;;;;;;;;;;21.00;56.90;;;20.04;59.05;101396.00;12268300;19;19926;-85
2023/10/10 16:04:42;;;;;;;;;;;21.00;57.00;;;19.94;58.73;101385.31;12271071;19;19929;-83
2023/10/10 16:08:46;;;;;;;;;;;21.00;57.00;;;19.97;58.99;101379.75;12281043;19;20026;-83
2023/10/10 16:12:48;;;;;;;;;;;21.00;57.00;;;19.96;58.95;101395.78;12283829;19;19926;-83
2023/10/10 16:16:49;;;;;;;;;;;20.90;57.00;;;19.96;58.75;101388.69;12276680;19;19986;-84
2023/10/10 16:20:52;;;;;;;;;;;20.90;56.90;;;19.92;58.64;101383.75;12275121;19;19931;-84
2023/10/10 16:24:53;;;;;;;;;;;20.80;56.90;;;19.80;58.78;101378.53;12281591;19;19914;-84
2023/10/10 16:28:55;;;;;;;;;;;20.80;56.90;;;19.65;58.62;101358.56;12277245;19;19922;-85
2023/10/10 16:32:56;;;;;;;;;;;20.80;57.00;;;19.79;58.85;101386.59;12270683;19;20015;-84
2023/10/10 16:36:58;;;;;;;;;;;20.70;57.00;;;19.77;58.85;101391.19;12280830;19;20304;-84
2023/10/10 16:41:01;;;;;;;;;;;20.70;57.00;;;19.76;59.06;101400.94;12277115;19;19955;-84
2023/10/10 16:45:03;;;;;;;;;;;20.70;57.00;;;19.67;58.76;101389.28;12285374;19;19922;-85
2023/10/10 16:49:08;;;;;;;;;;;20.60;56.90;;;19.44;59.04;101356.75;12280933;19;19919;-85
2023/10/10 16:53:11;;;;;;;;;;;20.60;56.90;;;19.63;58.74;101384.34;12281189;19;19950;-82
2023/10/10 16:57:13;;;;;;;;;;;20.50;56.90;;;19.58;58.82;101382.09;12281093;19;19915;-83
2023/10/10 17:01:15;;;;;;;;;;;20.50;56.90;;;19.57;58.72;101390.16;12277794;19;19948;-85
2023/10/10 17:05:23;;;;;;;;;;;20.50;57.00;;;19.51;58.88;101382.72;12280043;19;19915;-85
2023/10/10 17:09:26;;;;;;;;;;;20.40;56.90;;;19.48;58.58;101381.16;12278460;19;19918;-84
2023/10/10 17:13:29;;;;;;;;;;;20.40;57.00;;;19.43;58.65;101365.63;12279943;19;19930;-85
2023/10/10 17:17:30;;;;;;;;;;;20.30;57.00;;;19.39;58.71;101355.44;12282823;19;19925;-85
2023/10/10 17:21:34;;;;;;;;;;;20.30;57.00;;;19.32;58.56;101341.84;12279407;19;19918;-84
2023/10/10 17:25:39;;;;;;;;;;;20.20;57.10;;;19.34;58.92;101339.91;12284268;19;19907;-85
2023/10/10 17:29:41;;;;;;;;;;;20.20;57.10;;;19.29;58.94;101336.81;12279045;19;19922;-84
2023/10/10 17:33:42;;;;;;;;;;;20.20;57.20;;;19.15;58.60;101313.28;12282529;19;20439;-83
2023/10/10 17:37:44;;;;;;;;;;;20.00;57.10;;;19.15;58.51;101321.22;12270138;19;19918;-84
2023/10/10 17:41:47;;;;;;;;;;;20.00;57.50;;;19.19;58.77;101327.94;12269939;19;19919;-83
2023/10/10 17:45:48;;;;;;;;;;;20.00;57.30;;;19.16;58.59;101328.19;12275402;19;19931;-83
2023/10/10 17:49:49;;;;;;;;;;;20.00;57.40;;;18.89;58.81;101281.81;12267521;19;19926;-83
2023/10/10 17:53:51;;;;;;;;;;;20.00;57.40;;;19.15;58.65;101316.75;12273383;19;19921;-84
2023/10/10 17:57:53;;;;;;;;;;;20.00;57.50;;;19.11;59.00;101303.91;12278501;19;19919;-84
2023/10/10 18:01:54;;;;;;;;;;;20.00;57.60;;;18.83;59.01;101255.03;12281244;19;19946;-84
2023/10/10 18:05:56;;;;;;;;;;;20.00;57.50;;;18.94;58.94;101281.47;12276972;19;19926;-84
2023/10/10 18:09:57;;;;;;;;;;;20.00;57.60;;;19.05;58.89;101296.47;12277524;19;19927;-83
2023/10/10 18:14:02;;;;;;;;;;;19.90;57.50;;;18.90;58.82;101278.22;12277217;19;20338;-84
2023/10/10 18:18:07;;;;;;;;;;;19.90;57.50;;;19.06;58.83;101290.19;12272728;19;19915;-85
2023/10/10 18:22:08;;;;;;;;;;;20.00;57.60;;;19.09;58.95;101301.38;12277783;19;19915;-83
2023/10/10 18:26:14;;;;;;;;;;;20.00;57.70;;;19.08;58.78;101306.78;12275604;19;19923;-85
2023/10/10 18:30:20;;;;;;;;;;;19.90;57.90;;;19.09;58.91;101296.09;12275605;19;19915;-84
2023/10/10 18:34:24;;;;;;;;;;;19.90;57.60;;;19.09;58.84;101298.75;12276161;19;19923;-84
2023/10/10 18:38:26;;;;;;;;;;;20.00;57.60;;;19.04;58.93;101290.34;12278829;19;19928;-84
2023/10/10 18:42:28;;;;;;;;;;;19.90;57.50;;;19.01;58.69;101282.66;12275430;19;19935;-83
2023/10/10 18:46:32;;;;;;;;;;;19.90;57.50;;;18.97;58.73;101278.56;12271443;19;19915;-83
2023/10/10 18:50:34;;;;;;;;;;;19.90;57.60;;;19.06;58.77;101282.25;12267284;19;19925;-84
2023/10/10 18:54:35;;;;;;;;;;;19.90;57.50;;;18.98;59.02;101281.09;12266698;19;19959;-82
2023/10/10 18:58:38;;;;;;;;;;;19.90;57.50;;;19.02;58.73;101279.03;12268226;19;19919;-83
2023/10/10 19:02:42;;;;;;;;;;;19.90;57.60;;;19.04;58.87;101300.06;12268343;19;19911;-82
2023/10/10 19:06:49;;;;;;;;;;;19.90;57.60;;;19.01;58.77;101277.34;12268091;19;19923;-82
2023/10/10 19:10:50;;;;;;;;;;;19.90;57.60;;;19.01;58.76;101269.41;12262824;19;19925;-84
2023/10/10 19:14:55;;;;;;;;;;;20.00;57.60;;;19.01;59.01;101262.31;12262744;19;19926;-83
2023/10/10 19:18:56;;;;;;;;;;;19.90;57.50;;;18.96;59.16;101253.91;12268083;19;19943;-83
2023/10/10 19:22:58;;;;;;;;;;;19.90;57.50;;;18.97;58.77;101250.28;12276501;19;19930;-84
2023/10/10 19:27:01;;;;;;;;;;;19.90;57.50;;;18.96;58.99;101245.13;12273808;19;19922;-84
2023/10/10 19:31:04;;;;;;;;;;;19.90;57.50;;;18.96;59.10;101253.91;12270034;19;19915;-85
2023/10/10 19:35:10;;;;;;;;;;;19.90;57.60;;;18.96;59.12;101251.25;12276155;19;19919;-85
2023/10/10 19:39:11;;;;;;;;;;;19.80;57.50;;;18.90;58.84;101235.03;12273320;19;20380;-84
2023/10/10 19:43:13;;;;;;;;;;;19.80;57.50;;;18.91;59.04;101234.91;12285738;19;19914;-84
2023/10/10 19:47:16;;;;;;;;;;;19.80;57.50;;;18.71;59.02;101196.81;12282671;19;20400;-84
2023/10/10 19:51:17;;;;;;;;;;;19.80;57.50;;;18.84;59.07;101228.44;12287448;19;19949;-84
2023/10/10 19:55:19;;;;;;;;;;;19.80;57.50;;;18.80;58.97;101224.38;12284453;19;19915;-84
2023/10/10 19:59:20;;;;;;;;;;;19.70;57.50;;;18.80;58.97;101229.66;12282490;19;19919;-85
2023/10/10 20:03:27;;;;;;;;;;;19.70;57.50;;;18.79;58.79;101225.31;12284532;19;19922;-85
2023/10/10 20:07:28;;;;;;;;;;;19.70;57.50;;;18.85;58.97;101239.84;12284476;19;20423;-85
2023/10/10 20:11:30;;;;;;;;;;;19.70;57.50;;;18.82;58.79;101229.50;12278116;19;19919;-84
2023/10/10 20:15:36;;;;;;;;;;;19.70;57.50;;;18.80;58.96;101229.66;12277333;19;19961;-83
2023/10/10 20:19:39;;;;;;;;;;;19.70;57.50;;;18.79;58.81;101233.25;12279040;19;19923;-84
2023/10/10 20:23:42;;;;;;;;;;;19.70;57.50;;;18.64;58.90;101205.38;12283603;19;19997;-84
2023/10/10 20:27:47;;;;;;;;;;;19.70;57.40;;;18.69;58.85;101216.44;12282680;19;19922;-84
2023/10/10 20:31:49;;;;;;;;;;;19.60;57.40;;;18.68;58.69;101233.25;12283300;19;19923;-83
2023/10/10 20:35:51;;;;;;;;;;;19.50;57.30;;;18.60;59.07;101225.09;12280684;19;19914;-83
2023/10/10 20:39:53;;;;;;;;;;;19.50;57.30;;;18.60;59.09;101222.47;12278209;19;19926;-84
2023/10/10 20:43:54;;;;;;;;;;;19.40;57.30;;;18.51;58.80;101213.47;12279869;19;19910;-84
2023/10/10 20:47:57;;;;;;;;;;;19.40;57.30;;;18.48;58.72;101208.44;12278787;19;19927;-84
2023/10/10 20:51:58;;;;;;;;;;;19.40;57.30;;;18.47;58.90;101202.31;12282394;19;19919;-83
2023/10/10 20:56:02;;;;;;;;;;;19.30;57.40;;;18.45;58.79;101208.69;12281702;19;20585;-83